createdAt,value
2022-10-17T00:02:45.677Z,72.35
2022-10-17T00:05:38.362Z,71.68
2022-10-17T00:08:27.616Z,70.96
2022-10-17T00:11:26.291Z,70.37
2022-10-17T00:14:18.027Z,69.25
2022-10-17T00:17:08.042Z,68.66
2022-10-17T00:19:57.909Z,68.54
2022-10-17T00:22:47.627Z,68.32
2022-10-17T00:25:37.394Z,67.99
2022-10-17T00:28:26.544Z,67.88
2022-10-17T00:31:19.542Z,67.76
2022-10-17T00:34:09.174Z,67.66
2022-10-17T00:36:58.781Z,67.77
2022-10-17T00:39:48.223Z,68.17
2022-10-17T00:42:37.823Z,67.37
2022-10-17T00:45:30.755Z,67.37
2022-10-17T00:48:22.649Z,67.21
2022-10-17T00:51:13.295Z,67.23
2022-10-17T00:54:02.995Z,67.12
2022-10-17T00:56:53.207Z,66.75
2022-10-17T00:59:44.765Z,66.68
2022-10-17T01:02:36.547Z,66.58
2022-10-17T01:05:26.152Z,66.87
2022-10-17T01:08:15.935Z,67.31
2022-10-17T01:11:34.992Z,67.20
2022-10-17T01:14:34.945Z,66.91
2022-10-17T01:17:37.536Z,67.18
2022-10-17T01:20:40.228Z,66.93
2022-10-17T01:24:11.850Z,66.32
2022-10-17T01:27:25.571Z,66.68
2022-10-17T01:30:47.589Z,65.83
2022-10-17T01:34:03.137Z,66.67
2022-10-17T01:37:31.185Z,65.64
2022-10-17T01:40:49.506Z,65.61
2022-10-17T01:44:02.002Z,65.16
2022-10-17T01:49:53.445Z,64.39
2022-10-17T01:53:28.729Z,65.51
2022-10-17T01:56:18.895Z,65.19
2022-10-17T01:59:21.952Z,64.44
2022-10-17T02:02:13.780Z,64.67
2022-10-17T02:05:05.360Z,64.17
2022-10-17T02:07:55.420Z,63.94
2022-10-17T02:11:07.635Z,63.54
2022-10-17T02:14:32.586Z,62.58
2022-10-17T02:17:32.586Z,62.54
2022-10-17T02:20:47.761Z,62.21
2022-10-17T02:23:56.443Z,62.60
2022-10-17T02:27:03.398Z,62.22
2022-10-17T02:30:02.859Z,61.86
2022-10-17T02:33:02.026Z,61.86
2022-10-17T02:35:55.185Z,61.47
2022-10-17T02:38:45.427Z,61.01
2022-10-17T02:41:35.785Z,61.09
2022-10-17T02:44:25.892Z,61.15
2022-10-17T02:47:28.989Z,61.13
2022-10-17T02:50:18.843Z,61.59
2022-10-17T02:53:14.096Z,61.67
2022-10-17T02:56:16.633Z,61.80
2022-10-17T02:59:08.922Z,62.21
2022-10-17T03:01:58.376Z,61.79
2022-10-17T03:04:48.876Z,61.42
2022-10-17T03:07:38.787Z,61.80
2022-10-17T03:10:28.833Z,61.49
2022-10-17T03:13:19.605Z,61.50
2022-10-17T03:16:11.428Z,60.14
2022-10-17T03:19:01.672Z,60.10
2022-10-17T03:21:51.453Z,61.18
2022-10-17T03:24:41.623Z,61.48
2022-10-17T03:27:31.361Z,61.90
2022-10-17T03:30:22.058Z,61.87
2022-10-17T03:33:13.047Z,61.91
2022-10-17T03:36:08.460Z,62.92
2022-10-17T03:38:58.244Z,62.46
2022-10-17T03:41:47.642Z,62.70
2022-10-17T03:44:36.820Z,62.61
2022-10-17T03:47:29.098Z,61.44
2022-10-17T03:50:18.837Z,60.59
2022-10-17T03:53:09.839Z,59.49
2022-10-17T03:56:10.280Z,58.91
2022-10-17T03:59:00.928Z,58.68
2022-10-17T04:01:52.400Z,59.21
2022-10-17T04:04:43.378Z,59.23
2022-10-17T04:07:33.502Z,60.17
2022-10-17T04:10:25.643Z,60.88
2022-10-17T04:13:16.358Z,60.64
2022-10-17T04:16:09.150Z,60.37
2022-10-17T04:19:03.850Z,59.83
2022-10-17T04:21:58.806Z,59.79
2022-10-17T04:24:51.011Z,58.10
2022-10-17T04:28:00.823Z,57.04
2022-10-17T04:31:04.438Z,57.44
2022-10-17T04:34:02.316Z,58.04
2022-10-17T04:36:53.291Z,58.29
2022-10-17T04:39:43.844Z,58.12
2022-10-17T04:42:33.436Z,58.65
2022-10-17T04:45:23.878Z,58.16
2022-10-17T04:48:19.358Z,58.99
2022-10-17T04:51:14.426Z,58.71
2022-10-17T04:54:22.208Z,59.08
2022-10-17T04:57:17.851Z,59.82
2022-10-17T05:00:16.884Z,60.69
2022-10-17T05:03:21.949Z,61.70
2022-10-17T05:06:16.370Z,64.19
2022-10-17T05:09:11.790Z,67.13
2022-10-17T05:12:02.635Z,68.18
2022-10-17T05:14:55.000Z,68.66
2022-10-17T05:17:47.905Z,69.04
2022-10-17T05:20:40.848Z,69.33
2022-10-17T05:23:31.856Z,69.93
2022-10-17T05:26:22.739Z,69.63
2022-10-17T05:29:12.250Z,68.93
2022-10-17T05:32:07.267Z,69.17
2022-10-17T05:34:58.014Z,68.74
2022-10-17T05:37:47.700Z,67.69
2022-10-17T05:40:40.333Z,67.75
2022-10-17T05:43:36.556Z,67.87
2022-10-17T05:46:27.370Z,67.73
2022-10-17T05:49:32.165Z,67.38
2022-10-17T05:52:22.967Z,66.91
2022-10-17T05:55:41.720Z,66.50
2022-10-17T05:59:00.907Z,65.69
2022-10-17T06:02:02.656Z,65.55
2022-10-17T06:04:52.777Z,65.73
2022-10-17T06:07:44.643Z,65.76
2022-10-17T06:10:35.827Z,65.59
2022-10-17T06:13:26.432Z,65.62
2022-10-17T06:16:17.475Z,66.20
2022-10-17T06:19:07.843Z,66.42
2022-10-17T06:21:59.062Z,66.26
2022-10-17T06:24:50.027Z,66.15
2022-10-17T06:27:39.807Z,65.94
2022-10-17T06:30:29.481Z,66.05
2022-10-17T06:33:19.249Z,65.58
2022-10-17T06:36:10.207Z,65.90
2022-10-17T06:39:00.117Z,65.73
2022-10-17T06:41:55.761Z,65.72
2022-10-17T06:44:59.293Z,65.57
2022-10-17T06:48:03.150Z,65.48
2022-10-17T06:51:10.734Z,65.39
2022-10-17T06:54:09.665Z,65.10
2022-10-17T06:57:17.183Z,65.58
2022-10-17T07:00:21.718Z,65.10
2022-10-17T07:03:14.828Z,65.18
2022-10-17T07:06:05.011Z,65.04
2022-10-17T07:08:57.417Z,65.01
2022-10-17T07:11:47.397Z,65.09
2022-10-17T07:14:40.500Z,65.55
2022-10-17T07:17:31.319Z,65.14
2022-10-17T07:20:20.894Z,66.14
2022-10-17T07:23:11.156Z,66.59
2022-10-17T07:26:08.310Z,66.39
2022-10-17T07:29:03.337Z,66.32
2022-10-17T07:31:57.634Z,65.90
2022-10-17T07:34:47.515Z,65.64
2022-10-17T07:37:38.085Z,66.20
2022-10-17T07:40:27.886Z,66.15
2022-10-17T07:43:18.114Z,66.59
2022-10-17T07:46:07.875Z,66.46
2022-10-17T07:48:57.960Z,66.19
2022-10-17T07:51:49.591Z,66.30
2022-10-17T07:54:39.644Z,65.93
2022-10-17T07:57:29.708Z,65.90
2022-10-17T08:00:19.639Z,65.40
2022-10-17T08:03:11.741Z,65.49
2022-10-17T08:06:02.467Z,65.82
2022-10-17T08:08:52.241Z,65.37
2022-10-17T08:11:41.989Z,65.75
2022-10-17T08:14:31.724Z,66.09
2022-10-17T08:17:21.267Z,66.02
2022-10-17T08:20:11.363Z,66.46
2022-10-17T08:23:00.792Z,66.58
2022-10-17T08:25:50.432Z,66.83
2022-10-17T08:28:42.957Z,67.23
2022-10-17T08:31:33.661Z,67.18
2022-10-17T08:34:29.771Z,67.01
2022-10-17T08:37:22.057Z,67.64
2022-10-17T08:40:21.131Z,67.72
2022-10-17T08:43:21.683Z,67.42
2022-10-17T08:46:16.939Z,66.99
2022-10-17T08:49:14.766Z,66.89
2022-10-17T08:52:31.049Z,67.19
2022-10-17T08:55:44.613Z,68.91
2022-10-17T08:58:39.516Z,70.61
2022-10-17T09:01:43.467Z,71.62
2022-10-17T09:04:54.123Z,71.94
2022-10-17T09:08:10.332Z,71.78
2022-10-17T09:11:16.656Z,72.23
2022-10-17T09:14:27.340Z,72.95
2022-10-17T09:17:36.903Z,72.32
2022-10-17T09:20:47.032Z,71.52
2022-10-17T09:23:47.859Z,71.68
2022-10-17T09:26:41.452Z,71.63
2022-10-17T09:29:36.906Z,72.28
2022-10-17T09:32:29.423Z,72.69
2022-10-17T09:35:24.636Z,72.66
2022-10-17T09:38:21.879Z,73.04
2022-10-17T09:41:44.425Z,73.63
2022-10-17T09:44:37.166Z,73.52
2022-10-17T09:47:33.619Z,72.75
2022-10-17T09:50:35.147Z,73.05
2022-10-17T09:53:47.187Z,73.21
2022-10-17T09:57:00.677Z,73.23
2022-10-17T10:00:05.755Z,72.56
2022-10-17T10:03:14.680Z,72.51
2022-10-17T10:06:19.191Z,72.68
2022-10-17T10:09:22.440Z,72.56
2022-10-17T10:12:21.554Z,72.91
2022-10-17T10:15:41.968Z,72.99
2022-10-17T10:18:37.139Z,72.70
2022-10-17T10:21:29.460Z,72.54
2022-10-17T10:24:21.240Z,72.95
2022-10-17T10:27:19.077Z,72.87
2022-10-17T10:30:09.192Z,72.70
2022-10-17T10:33:00.016Z,72.70
2022-10-17T10:36:04.880Z,73.40
2022-10-17T10:39:03.834Z,73.68
2022-10-17T10:41:55.402Z,73.96
2022-10-17T10:44:45.156Z,74.36
2022-10-17T10:47:34.904Z,74.08
2022-10-17T10:50:45.064Z,73.53
2022-10-17T10:53:50.779Z,73.51
2022-10-17T10:56:48.784Z,73.50
2022-10-17T11:00:01.779Z,73.09
2022-10-17T11:03:11.825Z,72.54
2022-10-17T11:06:15.004Z,72.38
2022-10-17T11:09:31.409Z,72.91
2022-10-17T11:12:31.471Z,72.66
2022-10-17T11:15:33.388Z,72.15
2022-10-17T11:18:32.346Z,72.11
2022-10-17T11:21:45.937Z,72.13
2022-10-17T11:24:42.376Z,72.65
2022-10-17T11:27:32.923Z,72.53
2022-10-17T11:30:23.800Z,72.66
2022-10-17T11:33:35.902Z,72.72
2022-10-17T11:36:39.660Z,72.82
2022-10-17T11:39:56.978Z,73.17
2022-10-17T11:43:29.136Z,73.63
2022-10-17T11:46:27.708Z,73.75
2022-10-17T11:49:20.944Z,74.54
2022-10-17T11:52:55.509Z,73.25
2022-10-17T11:55:47.615Z,73.32
2022-10-17T11:58:43.427Z,73.52
2022-10-17T12:01:41.282Z,72.26
2022-10-17T12:05:03.210Z,72.37
2022-10-17T12:07:56.706Z,71.99
2022-10-17T12:10:47.732Z,71.99
2022-10-17T12:13:37.099Z,71.93
2022-10-17T12:16:26.873Z,72.16
2022-10-17T12:19:23.372Z,71.80
2022-10-17T12:22:21.369Z,72.18
2022-10-17T12:25:32.911Z,72.43
2022-10-17T12:28:34.870Z,72.11
2022-10-17T12:31:33.863Z,72.10
2022-10-17T12:34:25.928Z,72.38
2022-10-17T12:37:16.390Z,71.96
2022-10-17T12:40:39.376Z,72.39
2022-10-17T12:43:32.007Z,72.36
2022-10-17T12:47:01.613Z,72.05
2022-10-17T12:49:55.805Z,72.13
2022-10-17T12:53:01.654Z,71.82
2022-10-17T12:55:52.851Z,72.20
2022-10-17T12:58:50.320Z,72.32
2022-10-17T13:01:41.159Z,71.82
2022-10-17T13:04:32.617Z,71.69
2022-10-17T13:07:25.453Z,72.02
2022-10-17T13:13:41.294Z,72.14
2022-10-17T13:16:34.352Z,72.43
2022-10-17T13:19:32.095Z,71.83
2022-10-17T13:22:33.581Z,71.63
2022-10-17T13:25:28.219Z,71.84
2022-10-17T13:28:18.651Z,72.18
2022-10-17T13:31:08.960Z,71.79
2022-10-17T13:34:00.919Z,72.19
2022-10-17T13:36:57.982Z,72.44
2022-10-17T13:39:55.548Z,72.09
2022-10-17T13:42:45.151Z,71.75
2022-10-17T13:45:39.364Z,71.92
2022-10-17T13:48:30.346Z,71.93
2022-10-17T13:51:20.179Z,71.80
2022-10-17T13:54:38.721Z,71.82
2022-10-17T13:57:31.412Z,72.18
2022-10-17T14:00:23.972Z,72.21
2022-10-17T14:03:14.561Z,72.54
2022-10-17T14:06:10.641Z,72.05
2022-10-17T14:09:02.407Z,72.11
2022-10-17T14:12:20.494Z,72.33
2022-10-17T14:15:14.522Z,71.50
2022-10-17T14:18:09.932Z,71.75
2022-10-17T14:24:25.834Z,71.27
2022-10-17T14:27:39.547Z,71.53
2022-10-17T14:33:42.545Z,70.86
2022-10-17T14:36:36.657Z,70.74
2022-10-17T14:39:27.806Z,70.64
2022-10-17T14:42:24.100Z,70.60
2022-10-17T14:45:21.354Z,71.18
2022-10-17T14:48:20.119Z,70.88
2022-10-17T14:51:16.931Z,70.94
2022-10-17T14:54:15.575Z,70.69
2022-10-17T14:57:18.719Z,71.39
2022-10-17T15:00:11.623Z,71.10
2022-10-17T15:03:04.662Z,70.85
2022-10-17T15:05:56.837Z,71.63
2022-10-17T15:08:46.079Z,71.34
2022-10-17T15:11:38.721Z,71.25
2022-10-17T15:14:28.961Z,71.17
2022-10-17T15:17:30.397Z,71.39
2022-10-17T15:20:21.352Z,71.71
2022-10-17T15:23:10.741Z,71.75
2022-10-17T15:26:01.157Z,71.58
2022-10-17T15:28:55.189Z,71.98
2022-10-17T15:31:45.127Z,71.89
2022-10-17T15:34:35.237Z,71.95
2022-10-17T15:37:26.391Z,71.95
2022-10-17T15:40:25.248Z,72.42
2022-10-17T15:43:18.755Z,72.41
2022-10-17T15:46:22.221Z,72.96
2022-10-17T15:49:16.680Z,73.24
2022-10-17T15:52:06.758Z,72.53
2022-10-17T15:54:59.491Z,73.12
2022-10-17T15:57:52.047Z,72.61
2022-10-17T16:00:43.717Z,73.00
2022-10-17T16:03:34.659Z,73.20
2022-10-17T16:06:25.860Z,73.00
2022-10-17T16:09:15.730Z,72.75
2022-10-17T16:12:07.790Z,73.24
2022-10-17T16:14:58.275Z,72.70
2022-10-17T16:17:47.699Z,73.00
2022-10-17T16:20:37.518Z,72.69
2022-10-17T16:23:27.996Z,73.03
2022-10-17T16:26:17.884Z,72.79
2022-10-17T16:29:08.175Z,72.88
2022-10-17T16:31:58.180Z,72.73
2022-10-17T16:34:47.896Z,72.72
2022-10-17T16:37:37.209Z,72.95
2022-10-17T16:40:27.244Z,72.71
2022-10-17T16:43:16.813Z,72.58
2022-10-17T16:46:10.036Z,72.55
2022-10-17T16:49:00.808Z,73.17
2022-10-17T16:51:50.035Z,73.19
2022-10-17T16:54:40.082Z,72.49
2022-10-17T16:57:30.178Z,72.59
2022-10-17T17:00:22.826Z,72.41
2022-10-17T17:03:12.940Z,72.00
2022-10-17T17:06:02.856Z,72.00
2022-10-17T17:08:53.236Z,72.11
2022-10-17T17:11:48.039Z,72.09
2022-10-17T17:14:37.323Z,71.69
2022-10-17T17:17:36.825Z,72.00
2022-10-17T17:20:38.340Z,72.50
2022-10-17T17:23:28.646Z,72.45
2022-10-17T17:26:20.355Z,72.20
2022-10-17T17:29:09.955Z,72.43
2022-10-17T17:31:59.996Z,72.43
2022-10-17T17:34:49.816Z,72.86
2022-10-17T17:37:39.208Z,72.56
2022-10-17T17:40:28.227Z,73.08
2022-10-17T17:43:17.444Z,72.68
2022-10-17T17:46:06.732Z,72.49
2022-10-17T17:48:58.215Z,73.27
2022-10-17T17:51:47.826Z,73.14
2022-10-17T17:54:40.742Z,73.05
2022-10-17T17:57:31.386Z,72.90
2022-10-17T18:00:21.228Z,73.40
2022-10-17T18:03:10.902Z,72.80
2022-10-17T18:06:00.719Z,72.94
2022-10-17T18:08:53.475Z,72.72
2022-10-17T18:11:43.047Z,73.12
2022-10-17T18:14:32.758Z,73.15
2022-10-17T18:17:23.007Z,72.78
2022-10-17T18:20:14.486Z,72.88
2022-10-17T18:23:04.324Z,73.17
2022-10-17T18:26:02.298Z,73.18
2022-10-17T18:28:52.128Z,73.03
2022-10-17T18:31:41.460Z,73.26
2022-10-17T18:34:31.209Z,73.01
2022-10-17T18:37:20.626Z,73.35
2022-10-17T18:40:10.452Z,73.33
2022-10-17T18:43:00.037Z,73.42
2022-10-17T18:45:51.174Z,73.15
2022-10-17T18:48:42.403Z,73.09
2022-10-17T18:51:31.881Z,73.62
2022-10-17T18:54:23.095Z,73.14
2022-10-17T18:57:12.714Z,73.29
2022-10-17T19:00:01.850Z,73.90
2022-10-17T19:02:51.268Z,73.62
2022-10-17T19:05:41.518Z,73.65
2022-10-17T19:08:33.296Z,73.71
2022-10-17T19:11:25.395Z,74.10
2022-10-17T19:14:15.009Z,74.10
2022-10-17T19:17:04.958Z,73.67
2022-10-17T19:19:55.905Z,73.74
2022-10-17T19:22:45.959Z,73.98
2022-10-17T19:25:35.933Z,73.98
2022-10-17T19:28:25.473Z,74.54
2022-10-17T19:31:16.993Z,74.22
2022-10-17T19:34:07.613Z,74.07
2022-10-17T19:36:58.389Z,74.10
2022-10-17T19:39:49.434Z,74.59
2022-10-17T19:42:38.631Z,74.70
2022-10-17T19:45:27.895Z,74.64
2022-10-17T19:48:18.416Z,74.70
2022-10-17T19:51:09.102Z,74.93
2022-10-17T19:54:01.279Z,74.90
2022-10-17T19:56:50.837Z,74.45
2022-10-17T19:59:39.660Z,74.64
2022-10-17T20:02:29.591Z,75.51
2022-10-17T20:05:20.209Z,75.17
2022-10-17T20:08:10.613Z,75.48
2022-10-17T20:11:08.080Z,75.43
2022-10-17T20:13:58.271Z,75.34
2022-10-17T20:16:53.307Z,75.23
2022-10-17T20:19:45.381Z,74.93
2022-10-17T20:22:35.727Z,75.03
2022-10-17T20:25:26.404Z,75.16
2022-10-17T20:28:17.097Z,75.33
2022-10-17T20:31:08.523Z,75.15
2022-10-17T20:34:01.459Z,75.39
2022-10-17T20:36:53.230Z,75.31
2022-10-17T20:39:44.351Z,75.23
2022-10-17T20:42:36.149Z,75.48
2022-10-17T20:45:37.591Z,75.38
2022-10-17T20:48:35.386Z,75.40
2022-10-17T20:51:24.242Z,75.32
2022-10-17T20:54:13.800Z,75.11
2022-10-17T20:57:04.908Z,75.39
2022-10-17T20:59:54.120Z,75.35
2022-10-17T21:02:43.157Z,75.24
2022-10-17T21:05:33.767Z,75.19
2022-10-17T21:08:23.217Z,75.61
2022-10-17T21:11:18.660Z,75.78
2022-10-17T21:14:09.147Z,75.78
2022-10-17T21:17:03.870Z,76.15
2022-10-17T21:19:56.701Z,76.24
2022-10-17T21:22:45.735Z,75.95
2022-10-17T21:25:35.283Z,75.56
2022-10-17T21:28:25.863Z,75.62
2022-10-17T21:31:16.971Z,75.75
2022-10-17T21:34:11.281Z,75.61
2022-10-17T21:37:01.343Z,75.94
2022-10-17T21:39:50.910Z,75.63
2022-10-17T21:42:40.004Z,75.97
2022-10-17T21:45:29.686Z,75.79
2022-10-17T21:48:18.741Z,75.75
2022-10-17T21:51:10.840Z,75.73
2022-10-17T21:54:05.673Z,75.44
2022-10-17T21:56:55.982Z,75.49
2022-10-17T21:59:45.846Z,75.57
2022-10-17T22:02:34.899Z,76.15
2022-10-17T22:05:26.185Z,75.90
2022-10-17T22:08:16.773Z,75.66
2022-10-17T22:11:15.169Z,76.28
2022-10-17T22:14:07.818Z,75.66
2022-10-17T22:16:58.164Z,75.90
2022-10-17T22:19:49.492Z,76.16
2022-10-17T22:22:39.590Z,75.76
2022-10-17T22:25:29.088Z,75.72
2022-10-17T22:28:18.439Z,76.05
2022-10-17T22:31:08.835Z,75.97
2022-10-17T22:33:59.957Z,76.31
2022-10-17T22:36:50.724Z,76.03
2022-10-17T22:39:41.189Z,76.09
2022-10-17T22:42:32.366Z,76.25
2022-10-17T22:45:21.808Z,76.29
2022-10-17T22:48:11.561Z,76.49
2022-10-17T22:51:02.016Z,76.55
2022-10-17T22:53:51.779Z,76.68
2022-10-17T22:56:41.185Z,76.53
2022-10-17T22:59:29.978Z,76.19
2022-10-17T23:02:19.788Z,76.49
2022-10-17T23:05:10.552Z,75.95
2022-10-17T23:08:00.197Z,76.26
2022-10-17T23:10:50.093Z,76.16
2022-10-17T23:13:41.734Z,76.07
2022-10-17T23:16:31.282Z,76.11
2022-10-17T23:19:20.699Z,76.27
2022-10-17T23:22:10.261Z,75.99
2022-10-17T23:24:59.923Z,76.15
2022-10-17T23:27:50.255Z,75.93
2022-10-17T23:30:40.582Z,75.95
2022-10-17T23:33:30.023Z,75.97
2022-10-17T23:36:25.336Z,75.57
2022-10-17T23:39:14.959Z,75.68
2022-10-17T23:42:03.967Z,75.59
2022-10-17T23:44:53.083Z,75.52
2022-10-17T23:47:42.477Z,75.12
2022-10-17T23:50:32.799Z,75.20
2022-10-17T23:53:22.095Z,74.82
2022-10-17T23:56:12.527Z,75.22
2022-10-17T23:59:02.015Z,74.80
